createdAt,value
2023-03-06T04:47:02.306Z,3.84
2023-03-06T04:52:04.464Z,3.75
2023-03-06T04:57:06.497Z,3.74
2023-03-06T05:02:08.627Z,3.73
2023-03-06T05:07:10.841Z,3.80
2023-03-06T05:12:12.910Z,3.67
2023-03-06T05:17:14.998Z,3.68
2023-03-06T05:22:17.166Z,3.62
2023-03-06T05:27:19.296Z,3.75
2023-03-06T05:32:22.384Z,3.75
2023-03-06T05:37:24.583Z,3.61
2023-03-06T05:42:28.730Z,3.62
2023-03-06T05:47:32.084Z,3.68
2023-03-06T05:52:34.168Z,3.57
2023-03-06T05:57:36.304Z,3.45
2023-03-06T06:02:38.376Z,3.50
2023-03-06T06:07:41.308Z,3.42
2023-03-06T06:12:43.592Z,3.52
2023-03-06T06:17:45.660Z,3.40
2023-03-06T06:22:47.882Z,3.52
2023-03-06T06:27:50.149Z,3.51
2023-03-06T06:32:52.265Z,3.36
2023-03-06T06:37:54.342Z,3.38
2023-03-06T06:42:56.373Z,3.47
2023-03-06T06:47:58.597Z,3.40
2023-03-06T06:53:00.708Z,3.59
2023-03-06T06:58:02.887Z,3.51
2023-03-06T07:03:04.980Z,3.59
2023-03-06T07:08:07.028Z,3.69
2023-03-06T07:13:09.077Z,3.74
2023-03-06T07:18:11.147Z,3.66
2023-03-06T07:23:13.580Z,3.77
2023-03-06T07:28:18.544Z,3.75
2023-03-06T07:33:21.413Z,3.77
2023-03-06T07:38:23.505Z,3.80
2023-03-06T07:43:25.601Z,3.89
2023-03-06T07:48:27.914Z,4.03
2023-03-06T07:53:30.720Z,4.02
2023-03-06T07:58:32.732Z,4.10
2023-03-06T08:03:34.942Z,4.15
2023-03-06T08:08:39.580Z,4.20
2023-03-06T08:13:41.885Z,4.23
2023-03-06T08:18:46.254Z,4.19
2023-03-06T08:23:48.705Z,4.24
2023-03-06T08:28:52.268Z,4.20
2023-03-06T08:33:54.828Z,4.21
2023-03-06T08:38:57.595Z,4.35
2023-03-06T08:43:59.936Z,4.07
2023-03-06T08:49:02.415Z,4.55
2023-03-06T08:54:04.515Z,4.41
2023-03-06T08:59:09.446Z,4.81
2023-03-06T09:04:11.925Z,5.11
2023-03-06T09:09:13.995Z,5.36
2023-03-06T09:14:16.033Z,5.56
2023-03-06T09:19:18.085Z,5.99
2023-03-06T09:24:20.280Z,6.91
2023-03-06T09:29:22.393Z,7.06
2023-03-06T09:34:24.473Z,6.95
2023-03-06T09:39:27.228Z,7.65
2023-03-06T09:44:32.270Z,8.25
2023-03-06T09:49:53.154Z,8.75
2023-03-06T09:54:58.763Z,9.27
2023-03-06T10:00:07.343Z,8.90
2023-03-06T10:05:21.474Z,8.89
2023-03-06T10:10:27.180Z,9.32
2023-03-06T10:15:34.570Z,8.56
2023-03-06T10:20:47.405Z,8.11
2023-03-06T10:26:03.125Z,7.90
2023-03-06T10:31:17.525Z,7.84
2023-03-06T10:36:21.411Z,7.54
2023-03-06T10:41:32.438Z,7.07
2023-03-06T10:46:46.966Z,6.75
2023-03-06T10:52:15.060Z,6.58
2023-03-06T10:57:18.617Z,6.51
2023-03-06T11:02:32.085Z,6.40
2023-03-06T11:07:35.991Z,6.41
2023-03-06T11:12:39.684Z,6.42
2023-03-06T11:17:49.378Z,6.33
2023-03-06T11:23:25.158Z,6.44
2023-03-06T11:28:34.993Z,6.63
2023-03-06T11:33:47.219Z,6.56
2023-03-06T11:38:51.319Z,6.69
2023-03-06T11:44:00.680Z,6.73
2023-03-06T11:49:29.061Z,6.82
2023-03-06T11:54:32.018Z,6.92
2023-03-06T12:00:12.456Z,6.82
2023-03-06T12:05:17.363Z,6.71
2023-03-06T12:10:33.635Z,6.68
2023-03-06T12:16:14.625Z,6.76
2023-03-06T12:21:40.221Z,6.88
2023-03-06T12:27:02.648Z,6.91
2023-03-06T12:32:43.699Z,7.01
2023-03-06T12:38:11.877Z,6.97
2023-03-06T12:43:29.225Z,7.13
2023-03-06T12:48:36.344Z,7.03
2023-03-06T12:53:40.591Z,6.95
2023-03-06T12:58:54.302Z,6.94
2023-03-06T13:04:08.099Z,6.85
2023-03-06T13:09:44.617Z,6.80
2023-03-06T13:14:54.082Z,6.76
2023-03-06T13:20:15.481Z,6.70
2023-03-06T13:25:17.698Z,6.67
2023-03-06T13:30:36.784Z,6.75
2023-03-06T13:35:41.944Z,6.76
2023-03-06T13:40:44.035Z,6.84
2023-03-06T13:45:48.216Z,6.91
2023-03-06T13:50:52.559Z,7.09
2023-03-06T13:56:22.071Z,7.09
2023-03-06T14:01:45.622Z,7.12
2023-03-06T14:06:53.369Z,7.83
2023-03-06T14:12:05.106Z,8.17
2023-03-06T14:17:15.194Z,7.79
2023-03-06T14:22:22.485Z,7.74
2023-03-06T14:27:42.180Z,7.55
2023-03-06T14:32:45.019Z,7.42
2023-03-06T14:37:53.684Z,7.11
2023-03-06T14:43:22.603Z,6.93
2023-03-06T14:48:27.699Z,6.78
2023-03-06T14:53:33.417Z,6.58
2023-03-06T14:58:57.547Z,6.44
2023-03-06T15:04:01.309Z,6.41
2023-03-06T15:09:21.393Z,6.45
2023-03-06T15:14:41.571Z,6.42
2023-03-06T15:19:48.652Z,6.34
2023-03-06T15:24:51.097Z,6.40
2023-03-06T15:29:53.187Z,6.27
2023-03-06T15:35:26.371Z,6.13
2023-03-06T15:40:31.110Z,6.13
2023-03-06T15:45:34.932Z,5.88
2023-03-06T15:50:37.066Z,5.79
2023-03-06T15:55:39.251Z,5.64
2023-03-06T16:00:42.440Z,5.48
2023-03-06T16:05:44.857Z,5.53
2023-03-06T16:10:47.890Z,5.47
2023-03-06T16:15:50.965Z,5.34
2023-03-06T16:20:53.314Z,5.23
2023-03-06T16:25:56.030Z,5.06
2023-03-06T16:30:58.221Z,5.04
2023-03-06T16:36:00.253Z,5.02
2023-03-06T16:41:02.411Z,4.99
2023-03-06T16:46:07.149Z,4.93
2023-03-06T16:51:13.264Z,5.06
2023-03-06T16:56:19.242Z,5.05
2023-03-06T17:01:21.438Z,4.97
2023-03-06T17:06:23.869Z,4.86
2023-03-06T17:11:26.574Z,4.90
2023-03-06T17:16:28.633Z,4.86
2023-03-06T17:21:30.737Z,4.86
2023-03-06T17:26:32.800Z,4.76
2023-03-06T17:31:34.961Z,4.71
2023-03-06T17:36:37.007Z,4.73
2023-03-06T17:41:39.177Z,4.60
2023-03-06T17:46:41.296Z,4.55
2023-03-06T17:51:43.537Z,4.57
2023-03-06T17:56:45.829Z,4.60
2023-03-06T18:01:47.953Z,4.52
2023-03-06T18:06:50.077Z,4.43
2023-03-06T18:11:52.219Z,4.46
2023-03-06T18:16:54.482Z,4.55
2023-03-06T18:21:56.616Z,4.45
2023-03-06T18:26:58.712Z,4.51
2023-03-06T18:32:01.940Z,4.41
2023-03-06T18:37:04.186Z,4.42
2023-03-06T18:42:06.593Z,4.38
2023-03-06T18:47:08.718Z,4.44
2023-03-06T18:52:11.657Z,4.44
2023-03-06T18:57:13.870Z,4.42
2023-03-06T19:02:15.959Z,4.43
2023-03-06T19:07:18.020Z,4.37
2023-03-06T19:12:20.215Z,4.38
2023-03-06T19:17:24.887Z,4.28
2023-03-06T19:22:27.122Z,4.40
2023-03-06T19:27:30.128Z,4.28
2023-03-06T19:32:33.073Z,4.18
2023-03-06T19:37:36.419Z,4.14
2023-03-06T19:42:38.708Z,4.10
2023-03-06T19:47:40.769Z,4.11
2023-03-06T19:52:42.865Z,4.17
2023-03-06T19:57:45.376Z,4.01
2023-03-06T20:02:47.467Z,3.93
2023-03-06T20:07:49.991Z,4.01
2023-03-06T20:12:52.044Z,3.85
2023-03-06T20:17:56.455Z,3.94
2023-03-06T20:23:02.585Z,3.91
2023-03-06T20:28:04.850Z,4.00
2023-03-06T20:33:06.902Z,3.94
2023-03-06T20:38:09.642Z,3.83
2023-03-06T20:43:11.702Z,3.88
2023-03-06T20:48:13.785Z,3.76
